Time;durP1;ratioP1;P1;durP2;ratioP2;P2;SDS_P1;SDS_P2;PMS_P1;PMS_P2;Temp;Humidity;BMP_temperature;BMP_pressure;BME280_temperature;BME280_humidity;BME280_pressure;Samples;Min_cycle;Max_cycle;Signal;HPM_P1;HPM_P2
2019/05/23 00:00:29;;;;;;;6.9;3.7;;;;;;;;;;;;;
2019/05/23 00:02:58;;;;;;;8;3.5;;;;;;;;;;;;;
2019/05/23 00:07:28;;;;;;;3.7;3.3;;;;;;;;;;;;;
2019/05/23 00:09:52;;;;;;;6;3.6;;;;;;;;;;;;;
2019/05/23 00:13:08;;;;;;;6;3.5;;;;;;;;;;;;;
2019/05/23 00:14:48;;;;;;;4;3.3;;;;;;;;;;;;;
2019/05/23 00:17:10;;;;;;;5.3;3.7;;;;;;;;;;;;;
2019/05/23 00:19:32;;;;;;;6.8;3.9;;;;;;;;;;;;;
2019/05/23 00:22:01;;;;;;;7.8;3.9;;;;;;;;;;;;;
2019/05/23 00:24:23;;;;;;;4.1;3.1;;;;;;;;;;;;;
2019/05/23 00:26:49;;;;;;;5.3;3.7;;;;;;;;;;;;;
2019/05/23 00:29:14;;;;;;;6.3;3.4;;;;;;;;;;;;;
2019/05/23 00:32:12;;;;;;;5.9;3.9;;;;;;;;;;;;;
2019/05/23 00:34:06;;;;;;;6.5;3.7;;;;;;;;;;;;;
2019/05/23 00:36:32;;;;;;;4.3;3.6;;;;;;;;;;;;;
2019/05/23 00:39:00;;;;;;;6.2;4;;;;;;;;;;;;;
2019/05/23 00:41:35;;;;;;;5.6;4.4;;;;;;;;;;;;;
2019/05/23 00:44:05;;;;;;;4.6;3.3;;;;;;;;;;;;;
2019/05/23 00:46:28;;;;;;;3.4;3;;;;;;;;;;;;;
2019/05/23 00:49:05;;;;;;;5;3.4;;;;;;;;;;;;;
2019/05/23 00:51:23;;;;;;;5.9;3.5;;;;;;;;;;;;;
2019/05/23 00:53:51;;;;;;;5;3.3;;;;;;;;;;;;;
2019/05/23 00:56:24;;;;;;;4.9;3.3;;;;;;;;;;;;;
2019/05/23 00:58:46;;;;;;;4.6;3.4;;;;;;;;;;;;;
2019/05/23 01:01:21;;;;;;;4.5;3.3;;;;;;;;;;;;;
2019/05/23 01:03:42;;;;;;;4.3;3.4;;;;;;;;;;;;;
2019/05/23 01:06:15;;;;;;;3.9;3.5;;;;;;;;;;;;;
2019/05/23 01:08:34;;;;;;;4.4;3.2;;;;;;;;;;;;;
2019/05/23 01:11:00;;;;;;;4.8;3.4;;;;;;;;;;;;;
2019/05/23 01:13:29;;;;;;;3.5;3.2;;;;;;;;;;;;;
2019/05/23 01:15:53;;;;;;;4.5;3.5;;;;;;;;;;;;;
2019/05/23 01:18:23;;;;;;;4.8;3.3;;;;;;;;;;;;;
2019/05/23 01:23:11;;;;;;;4.6;3.4;;;;;;;;;;;;;
2019/05/23 01:25:36;;;;;;;3.4;3.1;;;;;;;;;;;;;
2019/05/23 01:28:01;;;;;;;4.9;3.5;;;;;;;;;;;;;
2019/05/23 01:30:33;;;;;;;5.6;3.6;;;;;;;;;;;;;
2019/05/23 01:32:55;;;;;;;5.3;3.5;;;;;;;;;;;;;
2019/05/23 01:35:20;;;;;;;4.3;3.6;;;;;;;;;;;;;
2019/05/23 01:37:41;;;;;;;4.1;3.7;;;;;;;;;;;;;
2019/05/23 01:40:12;;;;;;;5.4;3.5;;;;;;;;;;;;;
2019/05/23 01:42:39;;;;;;;4.2;3.8;;;;;;;;;;;;;
2019/05/23 01:45:11;;;;;;;6.5;3.9;;;;;;;;;;;;;
2019/05/23 01:47:35;;;;;;;4.9;4.2;;;;;;;;;;;;;
2019/05/23 01:50:06;;;;;;;4;3.2;;;;;;;;;;;;;
2019/05/23 01:52:30;;;;;;;4.9;3.6;;;;;;;;;;;;;
2019/05/23 01:54:59;;;;;;;4.3;3.4;;;;;;;;;;;;;
2019/05/23 01:57:24;;;;;;;4.3;3.6;;;;;;;;;;;;;
2019/05/23 01:59:52;;;;;;;4.3;3.5;;;;;;;;;;;;;
2019/05/23 02:02:21;;;;;;;4.6;3.6;;;;;;;;;;;;;
2019/05/23 02:04:51;;;;;;;4.5;3.7;;;;;;;;;;;;;
2019/05/23 02:07:18;;;;;;;6.1;3.2;;;;;;;;;;;;;
2019/05/23 02:09:44;;;;;;;4.3;3.4;;;;;;;;;;;;;
2019/05/23 02:12:09;;;;;;;5.3;3.4;;;;;;;;;;;;;
2019/05/23 02:14:35;;;;;;;7.6;3.9;;;;;;;;;;;;;
2019/05/23 02:17:06;;;;;;;4.1;3.4;;;;;;;;;;;;;
2019/05/23 02:19:27;;;;;;;5.2;3.6;;;;;;;;;;;;;
2019/05/23 02:21:50;;;;;;;6.7;3.8;;;;;;;;;;;;;
2019/05/23 02:24:24;;;;;;;3.5;3;;;;;;;;;;;;;
2019/05/23 02:26:44;;;;;;;5.3;3.5;;;;;;;;;;;;;
2019/05/23 02:29:11;;;;;;;5.1;3.6;;;;;;;;;;;;;
2019/05/23 02:31:44;;;;;;;4.1;3.5;;;;;;;;;;;;;
2019/05/23 02:34:10;;;;;;;4.5;3.6;;;;;;;;;;;;;
2019/05/23 02:40:19;;;;;;;4.9;3.5;;;;;;;;;;;;;
2019/05/23 02:42:34;;;;;;;10.7;3.9;;;;;;;;;;;;;
2019/05/23 02:45:07;;;;;;;4.5;3.7;;;;;;;;;;;;;
2019/05/23 02:47:34;;;;;;;4.5;3.4;;;;;;;;;;;;;
2019/05/23 02:49:50;;;;;;;5.7;3.8;;;;;;;;;;;;;
2019/05/23 02:52:16;;;;;;;5.6;3.7;;;;;;;;;;;;;
2019/05/23 02:54:41;;;;;;;5.5;3.6;;;;;;;;;;;;;
2019/05/23 02:57:06;;;;;;;5.8;3.6;;;;;;;;;;;;;
2019/05/23 02:59:36;;;;;;;3.9;3.5;;;;;;;;;;;;;
2019/05/23 03:02:17;;;;;;;4.7;3.4;;;;;;;;;;;;;
2019/05/23 03:04:34;;;;;;;6.3;3.7;;;;;;;;;;;;;
2019/05/23 03:06:59;;;;;;;4.9;4.2;;;;;;;;;;;;;
2019/05/23 03:09:25;;;;;;;5;3.9;;;;;;;;;;;;;
2019/05/23 03:11:48;;;;;;;4.5;3.7;;;;;;;;;;;;;
2019/05/23 03:14:13;;;;;;;5.7;4;;;;;;;;;;;;;
2019/05/23 03:16:41;;;;;;;5.8;3.8;;;;;;;;;;;;;
2019/05/23 03:19:05;;;;;;;5.1;4.3;;;;;;;;;;;;;
2019/05/23 03:21:29;;;;;;;5.5;3.8;;;;;;;;;;;;;
2019/05/23 03:24:01;;;;;;;5.6;4.2;;;;;;;;;;;;;
2019/05/23 03:28:29;;;;;;;4.1;3.7;;;;;;;;;;;;;
2019/05/23 03:30:57;;;;;;;6.4;4.5;;;;;;;;;;;;;
2019/05/23 03:33:21;;;;;;;7.7;5;;;;;;;;;;;;;
2019/05/23 03:35:46;;;;;;;8.1;5.1;;;;;;;;;;;;;
2019/05/23 03:38:17;;;;;;;7.2;5.2;;;;;;;;;;;;;
2019/05/23 03:40:40;;;;;;;8.1;5.4;;;;;;;;;;;;;
2019/05/23 03:43:06;;;;;;;6.9;4.5;;;;;;;;;;;;;
2019/05/23 03:45:36;;;;;;;6.8;5;;;;;;;;;;;;;
2019/05/23 03:47:55;;;;;;;6.5;4.3;;;;;;;;;;;;;
2019/05/23 03:50:18;;;;;;;8.9;4.9;;;;;;;;;;;;;
2019/05/23 03:52:46;;;;;;;6.4;4.5;;;;;;;;;;;;;
2019/05/23 03:55:16;;;;;;;4.9;4.1;;;;;;;;;;;;;
2019/05/23 03:57:39;;;;;;;5.4;4.1;;;;;;;;;;;;;
2019/05/23 04:00:04;;;;;;;6.5;4.3;;;;;;;;;;;;;
2019/05/23 04:02:49;;;;;;;8.3;4.3;;;;;;;11.27;81.14648;940.9847;;;;
2019/05/23 04:05:11;;;;;;;5.6;4;;;;;;;11.24;81.12988;941.0258;;;;
2019/05/23 04:07:40;;;;;;;7.4;3.9;;;;;;;11.11;81.76758;940.949;;;;
2019/05/23 04:10:14;;;;;;;5.7;3.9;;;;;;;10.94;82.56934;941.0153;;;;
2019/05/23 04:12:49;;;;;;;4.8;3.7;;;;;;;10.93;82.3623;940.9992;;;;
2019/05/23 04:15:22;;;;;;;4.7;3.6;;;;;;;10.73;82.86133;940.9749;;;;
2019/05/23 04:18:03;;;;;;;6.8;4.5;;;;;;;10.71;84.3877;940.9977;;;;
2019/05/23 04:20:25;;;;;;;6.6;3.9;;;;;;;10.85;82.80371;940.9934;;;;
2019/05/23 04:23:18;;;;;;;4.9;3.7;;;;;;;10.98;82.10938;941.062;;;;
2019/05/23 04:25:44;;;;;;;7.5;3.6;;;;;;;11.07;81.9209;941.0243;;;;
2019/05/23 04:28:26;;;;;;;6.4;3.8;;;;;;;11.18;81.85938;941.0064;;;;
2019/05/23 04:30:53;;;;;;;6.1;3.6;;;;;;;11.11;80.89844;940.9825;;;;
2019/05/23 04:33:22;;;;;;;7.7;4.1;;;;;;;11.33;81.98047;941.0219;;;;
2019/05/23 04:35:49;;;;;;;5.7;3.8;;;;;;;11.53;80.62109;941.0331;;;;
2019/05/23 04:38:18;;;;;;;8.4;4;;;;;;;11.58;80.76855;941.0367;;;;
2019/05/23 04:40:47;;;;;;;5.5;3.3;;;;;;;11.65;79.46582;940.9796;;;;
2019/05/23 04:43:11;;;;;;;9;3.6;;;;;;;11.71;80.19922;941.0416;;;;
2019/05/23 04:45:43;;;;;;;6.7;3.5;;;;;;;11.89;79.17676;941.0597;;;;
2019/05/23 04:48:19;;;;;;;6.1;3.4;;;;;;;11.81;79.12793;941.0539;;;;
2019/05/23 04:50:50;;;;;;;5.6;3.1;;;;;;;11.65;78.95117;941.0474;;;;
2019/05/23 04:53:24;;;;;;;6.3;3.5;;;;;;;11.53;79.23633;940.9908;;;;
2019/05/23 04:55:42;;;;;;;4.9;3.3;;;;;;;11.62;79.14063;941.063;;;;
2019/05/23 04:58:20;;;;;;;6.4;3.4;;;;;;;11.72;79.31738;941.0455;;;;
2019/05/23 05:01:00;;;;;;;6;3.6;;;;;;;11.72;78.88379;940.9938;;;;
2019/05/23 05:03:47;;;;;;;8.7;3.5;;;;;;;11.64;79.5791;941.0823;;;;
2019/05/23 05:06:23;;;;;;;4.7;3.2;;;;;;;11.94;78.41797;941.0888;;;;
2019/05/23 05:08:48;;;;;;;7.7;3.2;;;;;;;11.85;78.64355;941.0977;;;;
2019/05/23 05:11:23;;;;;;;6;3.4;;;;;;;12.03;78.49316;941.0675;;;;
2019/05/23 05:13:57;;;;;;;7.7;3.6;;;;;;;12.05;78.27637;941.0916;;;;
2019/05/23 05:16:38;;;;;;;6.2;3.5;;;;;;;12.31;77.76367;941.1386;;;;
2019/05/23 05:19:05;;;;;;;6.1;3.2;;;;;;;12.57;76.69824;941.0369;;;;
2019/05/23 05:21:38;;;;;;;9;3.1;;;;;;;12.88;75.74023;941.0496;;;;
2019/05/23 05:24:06;;;;;;;4.3;2.8;;;;;;;13.18;74.61035;940.9987;;;;
2019/05/23 05:26:40;;;;;;;6.4;2.7;;;;;;;13.76;73.1582;940.9995;;;;
2019/05/23 05:29:17;;;;;;;4.2;2.4;;;;;;;14.22;69.75781;941.0464;;;;
2019/05/23 05:31:57;;;;;;;3.8;2.3;;;;;;;14.6;68.50488;941.0362;;;;
2019/05/23 05:34:16;;;;;;;3.8;2.1;;;;;;;14.83;68.47168;941.0083;;;;
2019/05/23 05:36:43;;;;;;;5;2.3;;;;;;;15.88;64.56641;940.998;;;;
2019/05/23 05:39:34;;;;;;;4.9;2.6;;;;;;;15.63;62.6582;940.9913;;;;
2019/05/23 05:42:08;;;;;;;5.1;2.5;;;;;;;15.55;65.67285;941.0425;;;;
2019/05/23 05:48:07;;;;;;;3.7;2.2;;;;;;;17.1;62.52148;940.9803;;;;
2019/05/23 05:50:45;;;;;;;3.4;1.8;;;;;;;17.69;56.46484;940.9509;;;;
2019/05/23 05:53:14;;;;;;;3.8;2.1;;;;;;;18.24;53.45605;940.967;;;;
2019/05/23 05:55:42;;;;;;;3.7;2.5;;;;;;;18.76;54.36914;941.0076;;;;
2019/05/23 05:58:08;;;;;;;10.4;2.7;;;;;;;17.84;57.9248;940.9805;;;;
2019/05/23 06:04:05;;;;;;;9.8;2.6;;;;;;;18.23;58.73047;940.9849;;;;
2019/05/23 06:04:25;;;;;;;8.8;2.8;;;;;;;18.11;56.83301;941.038;;;;
2019/05/23 06:07:00;;;;;;;6.3;2.4;;;;;;;18.85;56.45117;941.0095;;;;
2019/05/23 06:11:47;;;;;;;5.2;2.5;;;;;;;18.49;56.91699;941.147;;;;
2019/05/23 06:14:16;;;;;;;6.6;2.5;;;;;;;18.56;57.01953;941.0394;;;;
2019/05/23 06:16:38;;;;;;;6.8;2.5;;;;;;;18.81;57.23828;941.0914;;;;
2019/05/23 06:19:09;;;;;;;6.3;2.5;;;;;;;19.23;54.30957;941.0491;;;;
2019/05/23 06:21:50;;;;;;;4.6;2.2;;;;;;;19.74;51.48242;941.0709;;;;
2019/05/23 06:24:17;;;;;;;5;2.3;;;;;;;19.83;52.32031;940.9998;;;;
2019/05/23 06:27:00;;;;;;;5.2;2.1;;;;;;;19.97;53.27148;940.9813;;;;
2019/05/23 06:32:13;;;;;;;4.9;2.2;;;;;;;20.19;51.37012;940.9581;;;;
2019/05/23 06:34:35;;;;;;;6.9;2.2;;;;;;;20.93;50.62598;940.9444;;;;
2019/05/23 06:37:08;;;;;;;5;2.2;;;;;;;21.23;48.02832;940.8755;;;;
2019/05/23 06:39:34;;;;;;;3.7;2.3;;;;;;;21.49;45.44531;940.8323;;;;
2019/05/23 06:42:04;;;;;;;4.5;2.2;;;;;;;22.25;44.80859;940.7947;;;;
2019/05/23 06:44:35;;;;;;;3.7;2.4;;;;;;;22.87;43.54395;940.7618;;;;
2019/05/23 06:46:58;;;;;;;5.4;2.3;;;;;;;22.99;40.9248;940.6446;;;;
2019/05/23 06:49:27;;;;;;;9.9;2.3;;;;;;;22.4;44.25977;940.8006;;;;
2019/05/23 06:52:03;;;;;;;4.8;2.2;;;;;;;21.83;45.46875;940.6657;;;;
2019/05/23 06:54:33;;;;;;;3.3;2;;;;;;;23.09;41.54492;940.6879;;;;
2019/05/23 06:57:05;;;;;;;6.5;2.3;;;;;;;23.35;41.2041;940.6384;;;;
2019/05/23 06:59:42;;;;;;;5.9;2.5;;;;;;;22.31;43.19531;940.7084;;;;
2019/05/23 07:02:11;;;;;;;4.5;2.6;;;;;;;23.1;42.56836;940.7117;;;;
2019/05/23 07:04:54;;;;;;;3.9;2.4;;;;;;;23.39;41.6084;940.7098;;;;
2019/05/23 07:07:36;;;;;;;5.4;3;;;;;;;23.36;41.55859;940.7402;;;;
2019/05/23 07:10:07;;;;;;;3.9;2.6;;;;;;;23.98;39.26172;940.7656;;;;
2019/05/23 07:12:40;;;;;;;4.4;2.5;;;;;;;23.47;42.41406;940.7213;;;;
2019/05/23 07:15:08;;;;;;;4.1;2.7;;;;;;;24.17;40.91504;940.7942;;;;
2019/05/23 07:17:35;;;;;;;4.9;2.7;;;;;;;24.32;40.75195;940.8077;;;;
2019/05/23 07:20:17;;;;;;;3.8;2.8;;;;;;;24.15;39.74707;940.7886;;;;
2019/05/23 07:22:46;;;;;;;5.8;2.5;;;;;;;24.27;42.25488;940.758;;;;
2019/05/23 07:25:26;;;;;;;3.7;2.1;;;;;;;24.75;39.6123;940.7402;;;;
2019/05/23 07:27:50;;;;;;;3;2.4;;;;;;;25.76;36.6875;940.7213;;;;
2019/05/23 07:30:31;;;;;;;7.6;2.5;;;;;;;25.62;37.65723;940.6894;;;;
2019/05/23 07:32:57;;;;;;;6.6;3.2;;;;;;;25.4;38.44141;940.7056;;;;
2019/05/23 07:35:37;;;;;;;6.2;3.5;;;;;;;26.5;34.90137;940.644;;;;
2019/05/23 07:38:12;;;;;;;4.3;3.5;;;;;;;27.31;33.5293;940.6269;;;;
2019/05/23 07:40:43;;;;;;;6.7;4.6;;;;;;;26.88;34.44531;940.5679;;;;
2019/05/23 07:45:51;;;;;;;7.7;5;;;;;;;25.88;37.25293;940.5122;;;;
2019/05/23 07:48:10;;;;;;;5.3;4.6;;;;;;;25.67;38.12207;940.5212;;;;
2019/05/23 07:50:47;;;;;;;6.8;5;;;;;;;25.36;37.88281;940.5327;;;;
2019/05/23 07:53:23;;;;;;;7.8;4.2;;;;;;;24.66;41.24316;940.5153;;;;
2019/05/23 07:55:57;;;;;;;8.9;4.2;;;;;;;24.69;39.83105;940.5107;;;;
2019/05/23 07:58:24;;;;;;;7.1;4.9;;;;;;;24.62;38.62207;940.4905;;;;
2019/05/23 08:00:54;;;;;;;9.3;4;;;;;;;24.83;40.04492;940.4764;;;;
2019/05/23 08:03:26;;;;;;;7.3;4.3;;;;;;;25.33;38.43555;940.45;;;;
2019/05/23 08:05:51;;;;;;;5.1;4.3;;;;;;;24.82;38.82813;940.4263;;;;
2019/05/23 08:08:35;;;;;;;8.3;5;;;;;;;24.13;41.52441;940.4664;;;;
2019/05/23 08:11:25;;;;;;;7.6;5;;;;;;;23.25;44.12109;940.3495;;;;
2019/05/23 08:13:50;;;;;;;6.4;4.9;;;;;;;24.79;39.45117;940.4308;;;;
2019/05/23 08:16:22;;;;;;;5.9;4.8;;;;;;;25.9;37.05371;940.3652;;;;
2019/05/23 08:18:59;;;;;;;8.5;4.8;;;;;;;26.47;35.47949;940.3561;;;;
2019/05/23 08:21:28;;;;;;;7;5;;;;;;;26.75;34.94434;940.3395;;;;
2019/05/23 08:23:53;;;;;;;7.7;5.9;;;;;;;26.12;36.45703;940.3103;;;;
2019/05/23 08:26:43;;;;;;;8.5;5.1;;;;;;;24.87;39.94141;940.3325;;;;
2019/05/23 08:29:08;;;;;;;6.6;5.2;;;;;;;25.77;37.5166;940.2491;;;;
2019/05/23 08:35:08;;;;;;;6;5.2;;;;;;;26.18;35.74023;940.2736;;;;
2019/05/23 08:37:35;;;;;;;9.8;5.1;;;;;;;26.58;37.0625;940.2349;;;;
2019/05/23 08:40:03;;;;;;;8.1;5.2;;;;;;;26.25;36.44336;940.1469;;;;
2019/05/23 08:46:18;;;;;;;7.5;4.9;;;;;;;26.34;36.06055;940.1457;;;;
2019/05/23 08:48:47;;;;;;;9.1;4.8;;;;;;;26.02;37.21777;940.1505;;;;
2019/05/23 08:51:15;;;;;;;8.5;5.2;;;;;;;26.17;37.08789;940.1022;;;;
2019/05/23 08:53:42;;;;;;;5.5;4.1;;;;;;;26.64;34.35547;940.0818;;;;
2019/05/23 08:56:17;;;;;;;8.3;4.9;;;;;;;26.78;34.41406;940.0119;;;;
2019/05/23 08:58:44;;;;;;;11.7;5.1;;;;;;;27.09;33.94043;940.0457;;;;
2019/05/23 09:01:25;;;;;;;11.2;5;;;;;;;26.58;36.13867;940.0336;;;;
2019/05/23 09:03:49;;;;;;;8.3;5.1;;;;;;;26.55;35.20117;939.9992;;;;
2019/05/23 09:06:18;;;;;;;12.1;5.2;;;;;;;25.28;38.00586;939.9936;;;;
2019/05/23 09:08:58;;;;;;;7.2;4.4;;;;;;;25.96;34.84766;940.0344;;;;
2019/05/23 09:11:41;;;;;;;8.4;4.7;;;;;;;25.11;35.97363;939.9534;;;;
2019/05/23 09:14:07;;;;;;;8.2;5;;;;;;;25.12;38.0752;939.9693;;;;
2019/05/23 09:16:37;;;;;;;7.2;5.3;;;;;;;25.08;39.13379;939.928;;;;
2019/05/23 09:19:21;;;;;;;9.1;5.2;;;;;;;25.23;38.92285;939.9653;;;;
2019/05/23 09:21:55;;;;;;;8.8;5.7;;;;;;;24.5;39.9668;939.9042;;;;
2019/05/23 09:24:28;;;;;;;10.6;5.5;;;;;;;24.68;39.05176;939.9175;;;;
2019/05/23 09:26:49;;;;;;;10.2;5.1;;;;;;;24.15;39.86523;939.9553;;;;
2019/05/23 09:29:20;;;;;;;6.9;6.2;;;;;;;23.74;40.16895;939.9199;;;;
2019/05/23 09:32:07;;;;;;;6.5;5.7;;;;;;;22.9;42.90137;939.8778;;;;
2019/05/23 09:34:36;;;;;;;8.6;5.9;;;;;;;22.38;44.56348;939.916;;;;
2019/05/23 09:37:03;;;;;;;9.2;6.4;;;;;;;22.04;45.63184;939.8931;;;;
2019/05/23 09:39:36;;;;;;;9.4;6.5;;;;;;;22.45;45.84961;939.8586;;;;
2019/05/23 09:42:16;;;;;;;11;6.4;;;;;;;22.35;45.62793;939.8113;;;;
2019/05/23 09:44:51;;;;;;;12.4;7.3;;;;;;;22.19;45.88086;939.7734;;;;
2019/05/23 09:47:30;;;;;;;10.1;7.2;;;;;;;21.93;46.69922;939.7648;;;;
2019/05/23 09:50:07;;;;;;;9.8;6.9;;;;;;;21.06;48.78125;939.7963;;;;
2019/05/23 09:52:32;;;;;;;9.3;7;;;;;;;21.92;46.36914;939.788;;;;
2019/05/23 09:55:13;;;;;;;10.5;7.5;;;;;;;22.17;46.03125;939.8195;;;;
2019/05/23 09:57:45;;;;;;;9.4;7.2;;;;;;;22.64;43.52148;939.81;;;;
2019/05/23 10:00:18;;;;;;;8.8;7.2;;;;;;;22.71;43.87988;939.7534;;;;
2019/05/23 10:03:13;;;;;;;10;7.1;;;;;;;22.43;45.94043;939.8098;;;;
2019/05/23 10:05:45;;;;;;;9.9;7.2;;;;;;;22.28;43.4043;939.739;;;;
2019/05/23 10:08:16;;;;;;;9.9;7.4;;;;;;;22.45;44.14844;939.7378;;;;
2019/05/23 10:14:41;;;;;;;8;6.8;;;;;;;22.98;42.75586;939.6811;;;;
2019/05/23 10:17:03;;;;;;;9.4;7.6;;;;;;;22.69;43.08008;939.7427;;;;
2019/05/23 10:19:33;;;;;;;10.5;7.2;;;;;;;22.34;44.48926;939.6746;;;;
2019/05/23 10:22:06;;;;;;;8.5;6.8;;;;;;;22.76;44.93066;939.6629;;;;
2019/05/23 10:24:37;;;;;;;10.4;7.4;;;;;;;22.31;45.74121;939.7127;;;;
2019/05/23 10:27:08;;;;;;;12.2;6.9;;;;;;;22.49;44.32715;939.6805;;;;
2019/05/23 10:35:10;;;;;;;8.5;6.8;;;;;;;22.62;43.91895;939.6181;;;;
2019/05/23 10:37:38;;;;;;;9.9;6.7;;;;;;;22.78;42.10254;939.5528;;;;
2019/05/23 10:40:20;;;;;;;9;6.7;;;;;;;23.06;42.3291;939.4835;;;;
2019/05/23 10:42:43;;;;;;;10.7;7.3;;;;;;;23.57;41.57813;939.5316;;;;
2019/05/23 10:45:21;;;;;;;10.2;7.3;;;;;;;23.17;42.73828;939.5111;;;;
2019/05/23 10:47:52;;;;;;;9.3;6.3;;;;;;;23.15;40.48145;939.4263;;;;
2019/05/23 10:50:26;;;;;;;9.5;6.4;;;;;;;23.73;41.59277;939.4214;;;;
2019/05/23 10:52:57;;;;;;;9.1;6.4;;;;;;;23.81;39.96387;939.4453;;;;
2019/05/23 10:55:32;;;;;;;8.6;6.2;;;;;;;23.6;41.74512;939.3621;;;;
2019/05/23 10:57:56;;;;;;;7.6;6.3;;;;;;;23.05;43.05664;939.3766;;;;
2019/05/23 11:00:27;;;;;;;8.2;6.4;;;;;;;23.58;41.22559;939.2783;;;;
2019/05/23 11:03:02;;;;;;;7.4;6.3;;;;;;;23.09;42.86133;939.2231;;;;
2019/05/23 11:05:43;;;;;;;9.4;6.1;;;;;;;22.7;42.53027;939.3078;;;;
2019/05/23 11:08:32;;;;;;;7;5.5;;;;;;;22.5;42.29883;939.2678;;;;
2019/05/23 11:11:15;;;;;;;9.4;6.2;;;;;;;22.33;43.12695;939.2042;;;;
2019/05/23 11:14:03;;;;;;;10.6;5.7;;;;;;;22.17;42.97168;939.1965;;;;
2019/05/23 11:16:23;;;;;;;9.6;5.7;;;;;;;22.33;45.14453;939.1693;;;;
2019/05/23 11:18:50;;;;;;;6.8;5.8;;;;;;;22.22;44.42969;939.1682;;;;
2019/05/23 11:21:15;;;;;;;6.8;6.1;;;;;;;22.34;45.08691;939.1863;;;;
2019/05/23 11:23:54;;;;;;;9.1;5.8;;;;;;;22.14;43.1084;939.2178;;;;
2019/05/23 11:26:27;;;;;;;8;5.2;;;;;;;22.34;42.08398;939.2122;;;;
2019/05/23 11:29:06;;;;;;;8.6;5.2;;;;;;;22.12;45.83887;939.1809;;;;
2019/05/23 11:31:36;;;;;;;9.1;5.3;;;;;;;22.13;43.92871;939.1331;;;;
2019/05/23 11:34:07;;;;;;;9.1;5.5;;;;;;;21.84;44.47363;939.1978;;;;
2019/05/23 11:36:34;;;;;;;5.9;4.7;;;;;;;22.23;43.35156;939.1494;;;;
2019/05/23 11:39:08;;;;;;;6.1;5.2;;;;;;;22.35;43.46973;939.1152;;;;
2019/05/23 11:41:45;;;;;;;7.8;5.1;;;;;;;22.46;42.49512;939.1293;;;;
2019/05/23 11:44:09;;;;;;;10.9;5.2;;;;;;;22.18;43.40527;939.1086;;;;
2019/05/23 11:46:42;;;;;;;7.5;5.2;;;;;;;22.22;43.65723;939.0632;;;;
2019/05/23 11:49:18;;;;;;;9.5;5.3;;;;;;;22.19;44.27441;939.0545;;;;
2019/05/23 11:51:51;;;;;;;8;5.3;;;;;;;22.1;42.88281;939.0634;;;;
2019/05/23 11:54:44;;;;;;;9.9;5.3;;;;;;;22.37;41.91113;938.9911;;;;
2019/05/23 11:57:04;;;;;;;8.8;5.4;;;;;;;22.53;43.08887;939.0078;;;;
2019/05/23 11:59:30;;;;;;;7.4;5;;;;;;;22.57;42.65723;938.9763;;;;
2019/05/23 12:02:41;;;;;;;7.1;5;;;;;;;22.73;42.4375;938.8759;;;;
2019/05/23 12:04:53;;;;;;;6.3;5.2;;;;;;;22.25;41.25586;938.8436;;;;
2019/05/23 12:07:24;;;;;;;8.3;4.8;;;;;;;22.29;41.24707;938.8123;;;;
2019/05/23 12:15:06;;;;;;;6.3;5.1;;;;;;;22.37;41.47754;938.7914;;;;
2019/05/23 12:17:30;;;;;;;5.8;4.7;;;;;;;22.47;41.8623;938.7776;;;;
2019/05/23 12:22:35;;;;;;;6.5;5.1;;;;;;;22.39;43.83691;938.8192;;;;
2019/05/23 12:29:56;;;;;;;5.9;4.4;;;;;;;22.92;39.46191;938.7402;;;;
2019/05/23 12:32:28;;;;;;;6.5;5;;;;;;;22.77;40.12891;938.6875;;;;
2019/05/23 12:38:46;;;;;;;7.7;5;;;;;;;22.64;43.08691;938.6411;;;;
2019/05/23 14:44:36;;;;;;;6.5;5;;;;;;;21.08;42.81934;938.0053;;;;
2019/05/23 14:47:21;;;;;;;4.1;3.7;;;;;;;21.05;45.98535;937.9926;;;;
2019/05/23 14:49:37;;;;;;;7.1;3.9;;;;;;;21.09;44.52734;937.9953;;;;
2019/05/23 14:52:36;;;;;;;7.2;3.8;;;;;;;21.11;44.22559;938.027;;;;
2019/05/23 14:54:54;;;;;;;5.9;3.9;;;;;;;20.96;43.96387;938.0218;;;;
2019/05/23 14:57:31;;;;;;;4.8;3.6;;;;;;;21.02;44.22852;938.0264;;;;
2019/05/23 15:00:05;;;;;;;7.9;4;;;;;;;20.97;42.76172;937.9949;;;;
2019/05/23 15:02:39;;;;;;;6.8;4.3;;;;;;;20.93;43.29492;938.0429;;;;
2019/05/23 15:05:19;;;;;;;5.9;3.9;;;;;;;20.67;43.375;937.9366;;;;
2019/05/23 15:07:43;;;;;;;5.9;4;;;;;;;20.64;44.73926;937.9706;;;;
2019/05/23 15:10:25;;;;;;;6;4.3;;;;;;;20.75;45.01855;937.981;;;;
2019/05/23 15:12:49;;;;;;;6.4;4.8;;;;;;;20.48;44.44238;937.9791;;;;
2019/05/23 15:15:21;;;;;;;5.9;4.4;;;;;;;20.43;44.06445;937.9335;;;;
2019/05/23 15:17:44;;;;;;;5.6;4.2;;;;;;;20.37;44.11621;937.9063;;;;
2019/05/23 15:20:21;;;;;;;5.9;4.5;;;;;;;20.47;45.95996;937.9064;;;;
2019/05/23 15:23:06;;;;;;;7.6;4.7;;;;;;;20.39;45.74219;937.9341;;;;
2019/05/23 15:25:35;;;;;;;7;4.7;;;;;;;20.28;45.64844;937.9794;;;;
2019/05/23 15:28:10;;;;;;;5.7;4.3;;;;;;;20.36;45.00293;937.9601;;;;
2019/05/23 15:30:37;;;;;;;5.8;3.9;;;;;;;20.53;44.68164;937.9241;;;;
2019/05/23 15:33:02;;;;;;;5.6;3.9;;;;;;;20.43;44.19238;937.8649;;;;
2019/05/23 15:35:40;;;;;;;7.5;4.1;;;;;;;20.21;44.62598;937.9056;;;;
2019/05/23 15:38:16;;;;;;;6.7;4.3;;;;;;;19.99;46.19043;937.9309;;;;
2019/05/23 15:40:40;;;;;;;16.3;4.6;;;;;;;19.82;46.69824;937.9662;;;;
2019/05/23 15:43:11;;;;;;;19.4;4.6;;;;;;;19.64;46.87695;937.9514;;;;
2019/05/23 15:45:50;;;;;;;11.7;4.4;;;;;;;19.64;46.71387;937.9812;;;;
2019/05/23 15:48:27;;;;;;;7.6;4.5;;;;;;;19.45;46.12207;937.9241;;;;
2019/05/23 15:51:18;;;;;;;6.8;4.3;;;;;;;19.5;46.18555;937.9738;;;;
2019/05/23 15:54:02;;;;;;;5.7;4.1;;;;;;;19.38;47.50195;937.907;;;;
2019/05/23 15:56:17;;;;;;;4.2;3.8;;;;;;;19.43;47.26172;937.8495;;;;
2019/05/23 15:59:43;;;;;;;6.1;4.2;;;;;;;19.42;46.45703;937.8761;;;;
2019/05/23 16:01:33;;;;;;;6.1;4.1;;;;;;;19.43;46.45801;937.8187;;;;
2019/05/23 16:04:05;;;;;;;5.9;4.1;;;;;;;19.44;46.5752;937.788;;;;
2019/05/23 16:06:27;;;;;;;8.7;4.1;;;;;;;19.44;46.61035;937.8267;;;;
2019/05/23 16:08:57;;;;;;;4.6;3.9;;;;;;;19.47;48.15234;937.8306;;;;
2019/05/23 16:11:33;;;;;;;7.4;3.9;;;;;;;19.45;46.71582;937.7989;;;;
2019/05/23 16:13:57;;;;;;;4.5;4.1;;;;;;;18.91;46.81152;937.7562;;;;
2019/05/23 16:16:42;;;;;;;4.7;4.2;;;;;;;18.81;46.87012;937.7817;;;;
2019/05/23 16:19:24;;;;;;;5;4.4;;;;;;;18.58;47.81055;937.8244;;;;
2019/05/23 16:21:56;;;;;;;7.2;4.3;;;;;;;18.67;47.75098;937.7704;;;;
2019/05/23 16:24:36;;;;;;;4.8;4;;;;;;;18.76;47.2832;937.7548;;;;
2019/05/23 16:27:02;;;;;;;6.3;4.3;;;;;;;18.73;47.41992;937.7061;;;;
2019/05/23 16:29:31;;;;;;;6.9;4;;;;;;;18.77;47.3877;937.7578;;;;
2019/05/23 16:31:57;;;;;;;5.8;3.9;;;;;;;18.93;47.12695;937.6937;;;;
2019/05/23 16:34:22;;;;;;;4.5;4;;;;;;;18.75;47.29297;937.8035;;;;
2019/05/23 16:37:03;;;;;;;4.5;4;;;;;;;18.77;48.15723;937.7916;;;;
2019/05/23 16:39:31;;;;;;;4.7;3.9;;;;;;;18.67;47.35547;937.7656;;;;
2019/05/23 16:41:54;;;;;;;4.3;3.7;;;;;;;18.8;47.48535;937.7708;;;;
2019/05/23 16:44:34;;;;;;;4.3;3.9;;;;;;;18.8;47.35742;937.7539;;;;
2019/05/23 16:47:05;;;;;;;6.4;3.9;;;;;;;18.87;46.8877;937.796;;;;
2019/05/23 16:49:33;;;;;;;4.8;3.9;;;;;;;18.85;46.45508;937.8287;;;;
2019/05/23 16:52:02;;;;;;;6.2;4;;;;;;;18.45;47.00586;937.7466;;;;
2019/05/23 16:54:36;;;;;;;4.3;3.9;;;;;;;18.46;46.85645;937.7486;;;;
2019/05/23 16:57:07;;;;;;;4.7;3.8;;;;;;;18.29;47.29102;937.7488;;;;
2019/05/23 16:59:50;;;;;;;4.8;3.7;;;;;;;18.44;47.09863;937.7555;;;;
2019/05/23 17:02:35;;;;;;;5.9;3.4;;;;;;;18.31;47.71191;937.7637;;;;
2019/05/23 17:05:04;;;;;;;5.5;3.5;;;;;;;18.55;47.15723;937.7369;;;;
2019/05/23 17:11:12;;;;;;;5.3;3.6;;;;;;;18.26;47.85645;937.8389;;;;
2019/05/23 17:13:41;;;;;;;5.6;4;;;;;;;18.26;48.28809;937.8469;;;;
2019/05/23 17:19:06;;;;;;;5.1;3.6;;;;;;;17.94;49.1123;937.7964;;;;
2019/05/23 17:22:25;;;;;;;5.9;3.4;;;;;;;17.9;49.25781;937.8279;;;;
2019/05/23 17:24:01;;;;;;;5.4;3.5;;;;;;;17.79;49.40918;937.9053;;;;
2019/05/23 17:29:05;;;;;;;4.8;3.6;;;;;;;18.06;48.59082;937.8031;;;;
2019/05/23 17:31:31;;;;;;;5.1;3.4;;;;;;;18.18;48.08008;937.8145;;;;
2019/05/23 17:34:26;;;;;;;4.7;3.3;;;;;;;18.15;48.30957;937.8264;;;;
2019/05/23 17:36:52;;;;;;;5.9;3.2;;;;;;;17.87;48.87109;937.793;;;;
2019/05/23 17:39:31;;;;;;;7;3.4;;;;;;;17.95;48.70605;937.7697;;;;
2019/05/23 17:42:22;;;;;;;6.8;3.5;;;;;;;17.98;47.6875;937.7698;;;;
2019/05/23 17:45:00;;;;;;;5.4;3.1;;;;;;;18.06;48.06836;937.8329;;;;
2019/05/23 17:47:35;;;;;;;4.8;3.6;;;;;;;17.69;48.70117;937.8533;;;;
2019/05/23 17:50:34;;;;;;;5.1;3.4;;;;;;;17.75;48.60352;937.8497;;;;
2019/05/23 17:53:20;;;;;;;8.1;3.7;;;;;;;17.55;49.08008;937.8528;;;;
2019/05/23 17:56:03;;;;;;;7;3.3;;;;;;;17.67;48.47754;937.8647;;;;
2019/05/23 17:58:54;;;;;;;5.5;3.2;;;;;;;17.82;48.45996;937.8801;;;;
2019/05/23 18:01:19;;;;;;;6.2;3.3;;;;;;;17.67;48.24512;937.8727;;;;
2019/05/23 18:03:52;;;;;;;4.4;3.2;;;;;;;17.76;48.47656;937.8656;;;;
2019/05/23 18:06:24;;;;;;;4.6;3.2;;;;;;;17.76;48.05859;937.8794;;;;
2019/05/23 18:08:54;;;;;;;7.4;4.3;;;;;;;17.81;48.4707;937.9114;;;;
2019/05/23 18:11:28;;;;;;;6.4;4.4;;;;;;;17.52;50.25977;937.921;;;;
2019/05/23 18:13:53;;;;;;;6;3.2;;;;;;;17.36;51.71484;937.9493;;;;
2019/05/23 18:16:25;;;;;;;7;3.5;;;;;;;17.29;53.38672;937.9666;;;;
2019/05/23 18:19:09;;;;;;;6.5;3.7;;;;;;;16.96;55.59473;937.9247;;;;
2019/05/23 18:21:38;;;;;;;7.6;3.9;;;;;;;16.78;57.66797;937.9119;;;;
2019/05/23 18:24:10;;;;;;;7;3.9;;;;;;;16.62;58.16895;937.9219;;;;
2019/05/23 18:26:43;;;;;;;7;4.5;;;;;;;16.49;58.76563;937.9629;;;;
2019/05/23 18:29:11;;;;;;;7.5;3.8;;;;;;;16.28;59.45508;938.0167;;;;
2019/05/23 18:31:40;;;;;;;4.4;3.7;;;;;;;15.94;61.55859;938.0219;;;;
2019/05/23 18:37:29;;;;;;;8.3;3.7;;;;;;;16.09;59.5332;938.0775;;;;
2019/05/23 18:40:09;;;;;;;5.4;3.6;;;;;;;16.18;58.42285;938.1022;;;;
2019/05/23 18:43:03;;;;;;;6.1;3.9;;;;;;;16.13;59.64258;938.0908;;;;
2019/05/23 18:45:37;;;;;;;6.2;3.9;;;;;;;16.13;59.74805;938.1412;;;;
2019/05/23 18:48:33;;;;;;;5.9;3.9;;;;;;;16.13;59.26074;938.2064;;;;
2019/05/23 18:51:10;;;;;;;5.4;3.5;;;;;;;16.26;58.68945;938.2123;;;;
2019/05/23 18:54:04;;;;;;;4;3.6;;;;;;;16.23;59.88574;938.2336;;;;
2019/05/23 18:56:32;;;;;;;4.9;4;;;;;;;16.23;60.89355;938.2159;;;;
2019/05/23 18:59:08;;;;;;;6.4;4.1;;;;;;;16.21;60.12793;938.248;;;;
2019/05/23 19:01:45;;;;;;;6.1;4.2;;;;;;;16.17;59.87891;938.2316;;;;
2019/05/23 19:04:11;;;;;;;8.1;4.6;;;;;;;16.13;59.87402;938.3301;;;;
2019/05/23 19:06:45;;;;;;;6.4;4.4;;;;;;;16.15;59.76074;938.272;;;;
2019/05/23 19:09:27;;;;;;;6.2;4.6;;;;;;;16.17;60.87305;938.3424;;;;
2019/05/23 19:11:57;;;;;;;9.1;5.2;;;;;;;16.07;59.78418;938.3244;;;;